createdAt,value
2019-05-11T00:00:50.688Z,11.87
2019-05-11T00:03:20.794Z,13.15
2019-05-11T00:05:50.680Z,11.60
2019-05-11T00:08:20.913Z,13.20
2019-05-11T00:10:50.697Z,12.40
2019-05-11T00:13:20.843Z,12.85
2019-05-11T00:15:52.694Z,13.47
2019-05-11T00:18:22.743Z,13.48
2019-05-11T00:20:52.403Z,14.17
2019-05-11T00:23:21.996Z,14.60
2019-05-11T00:25:51.583Z,14.23
2019-05-11T00:28:21.172Z,15.57
2019-05-11T00:30:50.786Z,14.47
2019-05-11T00:33:20.876Z,14.07
2019-05-11T00:35:50.467Z,14.43
2019-05-11T00:38:20.826Z,13.48
2019-05-11T00:40:50.444Z,12.80
2019-05-11T00:43:20.894Z,13.77
2019-05-11T00:45:50.491Z,15.13
2019-05-11T00:48:20.897Z,14.00
2019-05-11T00:50:50.529Z,14.60
2019-05-11T00:53:21.002Z,14.13
2019-05-11T00:55:50.600Z,14.30
2019-05-11T00:58:20.847Z,14.33
2019-05-11T01:00:50.487Z,14.57
2019-05-11T01:03:20.954Z,14.33
2019-05-11T01:05:50.546Z,15.00
2019-05-11T01:08:20.925Z,16.27
2019-05-11T01:10:50.511Z,14.60
2019-05-11T01:13:20.909Z,15.13
2019-05-11T01:15:50.513Z,17.03
2019-05-11T01:18:20.937Z,16.40
2019-05-11T01:20:50.526Z,16.43
2019-05-11T01:23:20.919Z,15.97
2019-05-11T01:25:50.505Z,16.33
2019-05-11T01:28:20.919Z,16.53
2019-05-11T01:30:50.558Z,15.90
2019-05-11T01:33:21.009Z,15.93
2019-05-11T01:35:51.183Z,15.50
2019-05-11T01:38:20.999Z,15.93
2019-05-11T01:40:58.605Z,16.37
2019-05-11T01:43:21.867Z,17.25
2019-05-11T01:45:51.518Z,16.70
2019-05-11T01:48:21.100Z,16.17
2019-05-11T01:50:50.662Z,16.73
2019-05-11T01:53:20.920Z,15.30
2019-05-11T01:55:50.560Z,16.97
2019-05-11T01:58:20.947Z,18.23
2019-05-11T02:00:50.543Z,19.10
2019-05-11T02:03:20.926Z,17.57
2019-05-11T02:05:51.712Z,16.60
2019-05-11T02:08:21.465Z,15.83
2019-05-11T02:10:51.075Z,19.13
2019-05-11T02:13:22.037Z,17.47
2019-05-11T02:15:51.619Z,18.93
2019-05-11T02:18:21.220Z,18.83
2019-05-11T02:20:50.860Z,17.45
2019-05-11T02:23:20.994Z,17.37
2019-05-11T02:25:50.568Z,17.80
2019-05-11T02:28:20.988Z,17.60
2019-05-11T02:30:50.642Z,18.77
2019-05-11T02:33:21.033Z,21.27
2019-05-11T02:35:51.681Z,19.60
2019-05-11T02:38:21.459Z,21.47
2019-05-11T02:40:51.029Z,21.13
2019-05-11T02:43:20.983Z,20.13
2019-05-11T02:45:50.556Z,19.30
2019-05-11T02:48:21.145Z,22.20
2019-05-11T02:50:52.155Z,21.13
2019-05-11T02:53:22.021Z,23.10
2019-05-11T02:55:52.616Z,21.50
2019-05-11T02:58:22.242Z,21.20
2019-05-11T03:00:51.827Z,21.60
2019-05-11T03:03:21.395Z,21.67
2019-05-11T03:05:51.004Z,20.37
2019-05-11T03:08:21.069Z,19.17
2019-05-11T03:10:50.651Z,19.70
2019-05-11T03:13:21.127Z,19.20
2019-05-11T03:15:50.821Z,21.20
2019-05-11T03:18:21.080Z,21.20
2019-05-11T03:20:50.651Z,21.27
2019-05-11T03:23:21.032Z,20.37
2019-05-11T03:25:50.606Z,20.13
2019-05-11T03:28:21.009Z,19.20
2019-05-11T03:30:50.580Z,19.80
2019-05-11T03:33:21.102Z,21.23
2019-05-11T03:35:50.672Z,19.27
2019-05-11T03:38:21.116Z,19.07
2019-05-11T03:40:50.721Z,18.43
2019-05-11T03:43:21.007Z,19.07
2019-05-11T03:45:50.595Z,17.67
2019-05-11T03:48:21.009Z,17.87
2019-05-11T03:50:50.683Z,17.57
2019-05-11T03:53:21.056Z,17.20
2019-05-11T03:55:50.626Z,16.43
2019-05-11T03:58:25.478Z,16.20
2019-05-11T04:00:52.323Z,17.40
2019-05-11T04:03:21.928Z,17.77
2019-05-11T04:05:51.502Z,18.87
2019-05-11T04:08:21.081Z,18.30
2019-05-11T04:10:50.650Z,16.90
2019-05-11T04:13:21.082Z,17.62
2019-05-11T04:15:50.681Z,18.73
2019-05-11T04:18:21.174Z,17.73
2019-05-11T04:20:50.774Z,17.60
2019-05-11T04:23:21.067Z,16.73
2019-05-11T04:25:50.654Z,16.87
2019-05-11T04:28:21.073Z,17.40
2019-05-11T04:30:50.687Z,16.83
2019-05-11T04:33:21.068Z,17.03
2019-05-11T04:35:50.661Z,17.60
2019-05-11T04:38:21.286Z,15.75
2019-05-11T04:40:50.949Z,17.97
2019-05-11T04:43:21.158Z,17.63
2019-05-11T04:45:50.913Z,16.77
2019-05-11T04:48:21.202Z,18.07
2019-05-11T04:50:50.919Z,22.33
2019-05-11T04:53:21.179Z,24.23
2019-05-11T04:55:50.749Z,24.40
2019-05-11T04:58:21.303Z,26.07
2019-05-11T05:00:50.903Z,22.87
2019-05-11T05:03:21.612Z,22.77
2019-05-11T05:05:51.205Z,24.20
2019-05-11T05:08:26.296Z,21.50
2019-05-11T05:10:58.746Z,24.57
2019-05-11T05:13:29.425Z,24.40
2019-05-11T05:15:55.524Z,25.50
2019-05-11T05:18:25.096Z,25.77
2019-05-11T05:20:54.687Z,25.43
2019-05-11T05:23:24.282Z,26.53
2019-05-11T05:25:53.893Z,25.23
2019-05-11T05:28:23.595Z,26.20
2019-05-11T05:30:53.199Z,26.00
2019-05-11T05:33:22.850Z,24.03
2019-05-11T05:35:52.435Z,26.37
2019-05-11T05:38:22.016Z,24.82
2019-05-11T05:40:51.617Z,24.60
2019-05-11T05:43:27.114Z,21.53
2019-05-11T05:45:52.808Z,22.60
2019-05-11T05:48:22.395Z,24.57
2019-05-11T05:50:52.069Z,22.23
2019-05-11T05:53:21.629Z,21.57
2019-05-11T05:55:51.236Z,24.27
2019-05-11T05:58:21.292Z,23.45
2019-05-11T06:00:51.000Z,21.03
2019-05-11T06:03:21.238Z,23.50
2019-05-11T06:05:50.863Z,24.83
2019-05-11T06:08:21.295Z,23.35
2019-05-11T06:10:50.878Z,22.00
2019-05-11T06:13:21.278Z,20.90
2019-05-11T06:15:51.011Z,20.57
2019-05-11T06:18:21.183Z,20.33
2019-05-11T06:20:50.928Z,21.47
2019-05-11T06:23:21.165Z,21.80
2019-05-11T06:25:50.751Z,21.30
2019-05-11T06:28:21.252Z,20.50
2019-05-11T06:30:50.901Z,20.50
2019-05-11T06:33:21.288Z,21.10
2019-05-11T06:35:50.949Z,20.67
2019-05-11T06:38:21.389Z,24.47
2019-05-11T06:40:50.984Z,22.73
2019-05-11T06:43:21.267Z,20.37
2019-05-11T06:45:50.834Z,19.37
2019-05-11T06:48:21.326Z,21.70
2019-05-11T06:50:50.963Z,19.43
2019-05-11T06:53:21.226Z,18.43
2019-05-11T06:55:50.832Z,21.47
2019-05-11T06:58:21.739Z,20.40
2019-05-11T07:00:51.366Z,20.70
2019-05-11T07:03:21.332Z,19.60
2019-05-11T07:05:50.979Z,19.27
2019-05-11T07:08:21.420Z,19.30
2019-05-11T07:10:51.033Z,21.03
2019-05-11T07:13:21.328Z,19.15
2019-05-11T07:15:50.899Z,17.07
2019-05-11T07:18:21.329Z,17.30
2019-05-11T07:20:51.161Z,18.03
2019-05-11T07:23:21.434Z,17.67
2019-05-11T07:25:50.999Z,15.93
2019-05-11T07:28:21.237Z,17.87
2019-05-11T07:30:50.814Z,16.80
2019-05-11T07:33:21.283Z,17.03
2019-05-11T07:35:50.855Z,15.47
2019-05-11T07:38:21.363Z,15.18
2019-05-11T07:40:50.980Z,16.00
2019-05-11T07:43:21.281Z,17.33
2019-05-11T07:45:51.018Z,18.37
2019-05-11T07:48:21.510Z,17.43
2019-05-11T07:50:51.324Z,16.87
2019-05-11T07:53:21.487Z,16.93
2019-05-11T07:55:51.146Z,14.83
2019-05-11T07:58:21.339Z,13.60
2019-05-11T08:00:50.902Z,14.27
2019-05-11T08:03:21.285Z,14.10
2019-05-11T08:05:50.853Z,16.40
2019-05-11T08:08:24.620Z,15.70
2019-05-11T08:10:52.641Z,16.47
2019-05-11T08:13:22.207Z,17.65
2019-05-11T08:15:51.877Z,16.00
2019-05-11T08:18:21.612Z,15.13
2019-05-11T08:20:51.402Z,14.03
2019-05-11T08:23:21.232Z,15.43
2019-05-11T08:25:54.288Z,13.80
2019-05-11T08:28:22.091Z,16.30
2019-05-11T08:30:51.664Z,17.77
2019-05-11T08:33:21.331Z,16.47
2019-05-11T08:35:50.911Z,16.13
2019-05-11T08:38:21.306Z,16.67
2019-05-11T08:40:50.928Z,17.77
2019-05-11T08:43:21.287Z,20.33
2019-05-11T08:45:50.915Z,19.53
2019-05-11T08:48:21.305Z,22.80
2019-05-11T08:50:50.876Z,24.00
2019-05-11T08:53:21.310Z,30.70
2019-05-11T08:55:50.894Z,33.63
2019-05-11T08:58:21.416Z,35.60
2019-05-11T09:00:50.990Z,38.10
2019-05-11T09:03:21.665Z,36.28
2019-05-11T09:05:52.319Z,40.93
2019-05-11T09:08:22.045Z,35.27
2019-05-11T09:10:51.647Z,35.13
2019-05-11T09:13:21.315Z,34.45
2019-05-11T09:15:50.907Z,34.93
2019-05-11T09:18:21.326Z,33.07
2019-05-11T09:20:50.970Z,33.57
2019-05-11T09:23:33.776Z,34.87
2019-05-11T09:25:53.021Z,32.70
2019-05-11T09:28:22.690Z,34.30
2019-05-11T09:30:52.331Z,32.60
2019-05-11T09:33:22.012Z,34.50
2019-05-11T09:35:53.413Z,30.83
2019-05-11T09:38:22.916Z,33.03
2019-05-11T09:40:52.564Z,34.27
2019-05-11T09:43:22.253Z,35.20
2019-05-11T09:45:52.229Z,36.87
2019-05-11T09:48:21.854Z,37.80
2019-05-11T09:50:51.497Z,37.83
2019-05-11T09:53:21.467Z,41.05
2019-05-11T09:55:51.061Z,43.17
2019-05-11T09:58:21.398Z,44.30
2019-05-11T10:00:51.192Z,42.83
2019-05-11T10:03:22.357Z,43.67
2019-05-11T10:05:52.044Z,46.40
2019-05-11T10:08:21.757Z,45.57
2019-05-11T10:10:51.381Z,44.97
2019-05-11T10:13:21.394Z,45.98
2019-05-11T10:16:03.479Z,47.00
2019-05-11T10:18:24.270Z,48.70
2019-05-11T10:20:53.760Z,50.63
2019-05-11T10:23:23.384Z,50.53
2019-05-11T10:25:53.000Z,51.60
2019-05-11T10:28:22.586Z,45.57
2019-05-11T10:30:52.184Z,41.77
2019-05-11T10:33:21.769Z,39.87
2019-05-11T10:35:51.375Z,37.70
2019-05-11T10:38:21.450Z,39.00
2019-05-11T10:40:51.235Z,40.83
2019-05-11T10:43:21.450Z,38.92
2019-05-11T10:45:51.130Z,39.67
2019-05-11T10:48:21.485Z,39.47
2019-05-11T10:50:51.097Z,40.10
2019-05-11T10:53:21.503Z,39.97
2019-05-11T10:55:51.073Z,42.63
2019-05-11T10:58:21.471Z,42.83
2019-05-11T11:00:51.217Z,42.23
2019-05-11T11:03:21.590Z,43.40
2019-05-11T11:05:51.150Z,38.67
2019-05-11T11:08:21.419Z,36.13
2019-05-11T11:10:51.019Z,38.57
2019-05-11T11:13:21.542Z,35.68
2019-05-11T11:15:51.148Z,36.93
2019-05-11T11:18:21.450Z,38.10
2019-05-11T11:20:51.193Z,40.00
2019-05-11T11:23:21.454Z,46.27
2019-05-11T11:25:51.054Z,49.40
2019-05-11T11:28:21.460Z,36.47
2019-05-11T11:30:51.063Z,34.13
2019-05-11T11:33:21.509Z,32.75
2019-05-11T11:35:51.138Z,34.97
2019-05-11T11:38:21.444Z,35.70
2019-05-11T11:40:51.069Z,31.80
2019-05-11T11:43:21.457Z,32.53
2019-05-11T11:45:51.082Z,31.07
2019-05-11T11:48:21.518Z,29.27
2019-05-11T11:50:51.310Z,26.77
2019-05-11T11:53:21.459Z,25.00
2019-05-11T11:55:51.061Z,22.17
2019-05-11T11:58:23.869Z,21.37
2019-05-11T12:00:52.808Z,20.70
2019-05-11T12:03:22.400Z,20.90
2019-05-11T12:05:52.007Z,21.47
2019-05-11T12:08:21.614Z,22.70
2019-05-11T12:10:51.323Z,20.27
2019-05-11T12:13:21.538Z,18.27
2019-05-11T12:15:51.267Z,18.47
2019-05-11T12:18:21.573Z,17.13
2019-05-11T12:20:51.201Z,19.03
2019-05-11T12:23:21.643Z,16.27
2019-05-11T12:25:51.260Z,15.27
2019-05-11T12:28:21.507Z,15.13
2019-05-11T12:30:51.120Z,15.17
2019-05-11T12:33:21.524Z,15.40
2019-05-11T12:35:51.137Z,17.30
2019-05-11T12:38:21.613Z,14.70
2019-05-11T12:40:51.205Z,15.07
2019-05-11T12:43:22.589Z,15.28
2019-05-11T12:45:52.332Z,15.17
2019-05-11T12:48:21.911Z,15.57
2019-05-11T12:50:51.506Z,15.37
2019-05-11T12:53:21.575Z,13.53
2019-05-11T12:55:51.147Z,14.00
2019-05-11T12:58:21.834Z,14.07
2019-05-11T13:00:51.516Z,14.30
2019-05-11T13:03:21.625Z,14.05
2019-05-11T13:05:51.221Z,13.27
2019-05-11T13:08:21.687Z,13.13
2019-05-11T13:10:51.360Z,12.50
2019-05-11T13:13:21.592Z,11.87
2019-05-11T13:15:51.186Z,11.83
2019-05-11T13:18:21.825Z,12.10
2019-05-11T13:20:51.407Z,11.87
2019-05-11T13:23:21.578Z,12.10
2019-05-11T13:25:51.190Z,12.13
2019-05-11T13:28:21.564Z,11.30
2019-05-11T13:30:51.153Z,12.33
2019-05-11T13:33:21.636Z,11.33
2019-05-11T13:35:51.314Z,9.20
2019-05-11T13:38:21.582Z,7.80
2019-05-11T13:40:51.201Z,8.63
2019-05-11T13:43:21.604Z,9.90
2019-05-11T13:45:51.191Z,8.50
2019-05-11T13:48:21.595Z,8.50
2019-05-11T13:50:51.308Z,8.93
2019-05-11T13:53:21.685Z,8.17
2019-05-11T13:55:51.476Z,9.10
2019-05-11T13:58:21.783Z,9.27
2019-05-11T14:00:51.411Z,10.03
2019-05-11T14:03:21.703Z,9.48
2019-05-11T14:05:51.275Z,9.53
2019-05-11T14:08:21.885Z,9.17
2019-05-11T14:10:51.806Z,9.00
2019-05-11T14:13:21.686Z,9.10
2019-05-11T14:15:51.421Z,8.97
2019-05-11T14:18:21.595Z,9.13
2019-05-11T14:20:51.178Z,8.90
2019-05-11T14:23:21.643Z,8.70
2019-05-11T14:25:51.374Z,8.23
2019-05-11T14:28:21.639Z,8.30
2019-05-11T14:30:51.257Z,8.37
2019-05-11T14:33:21.657Z,8.00
2019-05-11T14:35:51.637Z,7.93
2019-05-11T14:38:21.655Z,7.80
2019-05-11T14:40:51.409Z,6.97
2019-05-11T14:43:21.643Z,7.80
2019-05-11T14:45:51.378Z,7.00
2019-05-11T14:48:26.419Z,7.60
2019-05-11T14:50:52.984Z,7.70
2019-05-11T14:53:24.017Z,6.57
2019-05-11T14:55:53.769Z,6.00
2019-05-11T14:58:23.428Z,6.60
2019-05-11T15:00:52.991Z,6.80
2019-05-11T15:03:22.598Z,5.80
2019-05-11T15:05:52.161Z,5.70
2019-05-11T15:08:21.737Z,5.27
2019-05-11T15:10:51.345Z,5.90
2019-05-11T15:13:21.753Z,5.70
2019-05-11T15:15:51.312Z,6.80
2019-05-11T15:18:34.950Z,6.40
2019-05-11T15:20:52.967Z,5.80
2019-05-11T15:23:22.560Z,7.03
2019-05-11T15:25:52.218Z,6.87
2019-05-11T15:28:21.821Z,6.43
2019-05-11T15:30:51.375Z,6.83
2019-05-11T15:33:21.763Z,6.97
2019-05-11T15:35:51.410Z,6.83
2019-05-11T15:38:21.835Z,7.50
2019-05-11T15:40:51.407Z,6.43
2019-05-11T15:43:21.672Z,6.77
2019-05-11T15:45:51.239Z,6.83
2019-05-11T15:48:21.699Z,7.08
2019-05-11T15:50:51.542Z,6.45
2019-05-11T15:53:21.791Z,6.50
2019-05-11T15:55:51.371Z,7.23
2019-05-11T15:58:21.945Z,8.13
2019-05-11T16:00:51.577Z,9.65
2019-05-11T16:03:21.754Z,9.88
2019-05-11T16:05:51.339Z,11.07
2019-05-11T16:08:21.713Z,10.18
2019-05-11T16:10:51.497Z,9.87
2019-05-11T16:13:21.714Z,11.07
2019-05-11T16:15:51.482Z,11.53
2019-05-11T16:18:21.700Z,12.43
2019-05-11T16:20:51.377Z,11.07
2019-05-11T16:23:22.261Z,13.03
2019-05-11T16:25:51.848Z,11.73
2019-05-11T16:28:21.717Z,12.37
2019-05-11T16:30:51.345Z,12.53
2019-05-11T16:33:21.772Z,12.60
2019-05-11T16:35:51.604Z,14.17
2019-05-11T16:38:21.736Z,14.00
2019-05-11T16:40:51.399Z,12.83
2019-05-11T16:43:21.804Z,14.33
2019-05-11T16:45:51.423Z,14.10
2019-05-11T16:48:21.936Z,14.30
2019-05-11T16:50:51.512Z,14.10
2019-05-11T16:53:21.768Z,14.63
2019-05-11T16:55:51.494Z,13.40
2019-05-11T16:58:21.810Z,13.53
2019-05-11T17:00:51.399Z,13.13
2019-05-11T17:03:21.817Z,13.62
2019-05-11T17:05:51.678Z,12.87
2019-05-11T17:08:22.057Z,13.55
2019-05-11T17:10:56.034Z,15.67
2019-05-11T17:13:25.675Z,13.23
2019-05-11T17:15:55.398Z,13.60
2019-05-11T17:18:25.035Z,10.80
2019-05-11T17:20:54.638Z,10.50
2019-05-11T17:23:24.221Z,9.87
2019-05-11T17:25:53.898Z,11.03
2019-05-11T17:28:23.556Z,9.93
2019-05-11T17:30:53.145Z,10.20
2019-05-11T17:33:23.000Z,11.17
2019-05-11T17:35:52.673Z,11.07
2019-05-11T17:38:22.491Z,10.63
2019-05-11T17:40:52.087Z,9.50
2019-05-11T17:43:21.916Z,8.98
2019-05-11T17:45:51.493Z,10.27
2019-05-11T17:48:21.909Z,9.50
2019-05-11T17:50:51.479Z,8.73
2019-05-11T17:53:21.962Z,10.55
2019-05-11T17:55:51.639Z,10.57
2019-05-11T17:58:21.867Z,9.65
2019-05-11T18:00:51.488Z,10.23
2019-05-11T18:03:21.896Z,10.37
2019-05-11T18:05:51.542Z,9.47
2019-05-11T18:08:21.943Z,9.43
2019-05-11T18:10:52.121Z,10.70
2019-05-11T18:13:21.834Z,9.90
2019-05-11T18:15:51.411Z,9.53
2019-05-11T18:18:24.077Z,9.97
2019-05-11T18:20:53.376Z,9.67
2019-05-11T18:23:23.008Z,9.30
2019-05-11T18:25:52.606Z,9.30
2019-05-11T18:28:22.174Z,8.13
2019-05-11T18:30:51.788Z,9.10
2019-05-11T18:33:21.852Z,8.43
2019-05-11T18:35:51.451Z,9.80
2019-05-11T18:38:21.902Z,9.43
2019-05-11T18:40:51.510Z,8.43
2019-05-11T18:43:21.997Z,6.75
2019-05-11T18:45:51.571Z,6.53
2019-05-11T18:48:21.151Z,4.10
2019-05-11T18:50:50.838Z,4.37
2019-05-11T18:53:20.400Z,4.00
2019-05-11T18:55:49.992Z,3.43
2019-05-11T18:58:19.559Z,3.50
2019-05-11T19:00:49.149Z,3.30
2019-05-11T19:03:19.280Z,3.87
2019-05-11T19:05:49.143Z,4.17
2019-05-11T19:08:19.143Z,3.75
2019-05-11T19:10:49.036Z,3.50
2019-05-11T19:13:18.710Z,3.50
2019-05-11T19:15:48.875Z,2.77
2019-05-11T19:18:18.601Z,3.43
2019-05-11T19:20:49.434Z,3.37
2019-05-11T19:23:19.362Z,3.70
2019-05-11T19:25:48.894Z,3.45
2019-05-11T19:28:18.818Z,3.27
2019-05-11T19:30:48.905Z,3.33
2019-05-11T19:33:19.164Z,3.50
2019-05-11T19:35:48.820Z,3.20
2019-05-11T19:38:18.931Z,3.13
2019-05-11T19:40:48.670Z,3.77
2019-05-11T19:43:18.715Z,3.40
2019-05-11T19:45:48.803Z,3.40
2019-05-11T19:48:18.397Z,3.30
2019-05-11T19:51:02.743Z,3.10
2019-05-11T19:53:19.406Z,3.20
2019-05-11T19:55:49.023Z,2.93
2019-05-11T19:58:19.428Z,3.53
2019-05-11T20:00:49.131Z,3.33
2019-05-11T20:03:18.721Z,3.13
2019-05-11T20:05:48.658Z,2.80
2019-05-11T20:08:18.577Z,2.97
2019-05-11T20:10:48.767Z,3.30
2019-05-11T20:13:18.649Z,3.27
2019-05-11T20:15:48.565Z,3.43
2019-05-11T20:18:18.522Z,3.63
2019-05-11T20:20:48.288Z,2.77
2019-05-11T20:23:17.896Z,3.30
2019-05-11T20:25:47.854Z,3.33
2019-05-11T20:28:18.261Z,3.40
2019-05-11T20:30:48.373Z,3.02
2019-05-11T20:33:18.960Z,3.40
2019-05-11T20:35:48.870Z,3.43
2019-05-11T20:38:18.943Z,3.53
2019-05-11T20:40:48.585Z,3.57
2019-05-11T20:43:18.710Z,3.73
2019-05-11T20:45:48.729Z,3.43
2019-05-11T20:48:18.642Z,3.33
2019-05-11T20:50:48.460Z,3.73
2019-05-11T20:53:18.262Z,3.50
2019-05-11T20:55:48.038Z,3.60
2019-05-11T20:58:18.985Z,3.00
2019-05-11T21:00:49.259Z,3.40
2019-05-11T21:03:18.809Z,3.73
2019-05-11T21:05:48.402Z,3.33
2019-05-11T21:08:18.056Z,3.13
2019-05-11T21:10:48.989Z,3.10
2019-05-11T21:13:18.605Z,2.67
2019-05-11T21:15:48.177Z,2.80
2019-05-11T21:18:18.435Z,2.53
2019-05-11T21:20:48.478Z,2.40
2019-05-11T21:23:18.705Z,2.40
2019-05-11T21:25:48.432Z,2.57
2019-05-11T21:28:18.018Z,2.73
2019-05-11T21:30:48.176Z,2.40
2019-05-11T21:33:17.991Z,2.40
2019-05-11T21:35:48.861Z,2.37
2019-05-11T21:38:18.571Z,2.03
2019-05-11T21:40:48.608Z,2.40
2019-05-11T21:43:18.166Z,2.40
2019-05-11T21:45:47.800Z,2.90
2019-05-11T21:48:17.558Z,2.50
2019-05-11T21:50:47.193Z,2.33
2019-05-11T21:53:18.470Z,2.45
2019-05-11T21:55:48.246Z,2.60
2019-05-11T21:58:18.393Z,2.40
2019-05-11T22:00:50.304Z,2.50
2019-05-11T22:03:20.036Z,2.40
2019-05-11T22:05:49.594Z,2.40
2019-05-11T22:08:19.199Z,2.60
2019-05-11T22:10:48.829Z,2.40
2019-05-11T22:13:20.605Z,2.87
2019-05-11T22:15:49.702Z,2.30
2019-05-11T22:18:30.219Z,2.73
2019-05-11T22:20:50.585Z,2.47
2019-05-11T22:23:20.169Z,2.53
2019-05-11T22:25:50.566Z,2.40
2019-05-11T22:28:20.270Z,2.40
2019-05-11T22:30:49.890Z,2.90
2019-05-11T22:33:19.498Z,2.90
2019-05-11T22:35:49.066Z,2.83
2019-05-11T22:38:18.659Z,2.73
2019-05-11T22:40:48.785Z,2.77
2019-05-11T22:43:18.382Z,2.80
2019-05-11T22:45:48.635Z,2.62
2019-05-11T22:48:18.280Z,2.77
2019-05-11T22:50:48.092Z,3.13
2019-05-11T22:53:19.248Z,2.93
2019-05-11T22:55:48.893Z,2.57
2019-05-11T22:58:18.470Z,3.17
2019-05-11T23:00:48.112Z,2.62
2019-05-11T23:03:18.861Z,2.60
2019-05-11T23:05:48.951Z,2.43
2019-05-11T23:08:18.575Z,2.70
2019-05-11T23:10:48.216Z,2.67
2019-05-11T23:13:18.661Z,2.53
2019-05-11T23:15:48.549Z,2.60
2019-05-11T23:18:18.180Z,3.17
2019-05-11T23:20:47.947Z,2.70
2019-05-11T23:23:18.127Z,2.72
2019-05-11T23:25:49.345Z,3.00
2019-05-11T23:28:18.898Z,3.27
2019-05-11T23:30:48.487Z,2.70
2019-05-11T23:33:18.442Z,2.77
2019-05-11T23:35:48.598Z,2.85
2019-05-11T23:38:18.267Z,2.90
2019-05-11T23:40:48.234Z,3.20
2019-05-11T23:43:19.137Z,3.17
2019-05-11T23:45:48.930Z,3.73
2019-05-11T23:48:18.547Z,3.30
2019-05-11T23:50:48.129Z,2.92
2019-05-11T23:53:17.946Z,2.97
2019-05-11T23:55:48.369Z,3.17
2019-05-11T23:58:19.359Z,3.00
